Terminal Aerodrome Forecast
Issued by NWS

Home | Current Version | Previous Version | Text Only | Print | Product List | Glossary On
Versions: 1 2 3 4 5 6 7 8 9 10 11 12 13
000
FTUS45 KGJT 302343
TAFASE
TAF
KASE 302343Z 3100/3124 33010G15KT P6SM SCT100 SCT250
     FM310200 21007KT P6SM FEW100 SCT250
     FM311500 VRB03KT P6SM BKN250
     FM311800 35007KT P6SM VCTS SCT100CB BKN250CB=

USA.gov is the U.S. government's official web portal to all federal, state and local government web resources and services.